Latest Coastal Weather Observations for Kalumburu

IDW60701

Issued at 11:55 am WST Friday 31 October 2014 (issued every 10 minutes, with the page automatically refreshed every 10 minutes)

About coastal observations | Map of coastal stations | Coastal observations for WA | Marine services | Other Formats
Station Details ID: 001019 Name: KALUMBURU Lat: -14.30 Lon: 126.65 Height: 23.0 m
Data from the previous 72 hours. | See also: Recent months at Kalumburu
Date/Time
WST
Temp

°C
Wind Pressure Rain
since 9am
mm
Weather Cloud Vis
km
Sea
Height
m
Swell
Dir
 
Speed
knots
Gust
knots
hPa Trend Height
m
Period
s
Dir
31/11:30am 35.8 N 11 15 1008.5 - 0.0 - - - - - - -
31/11:00am 36.2 NW 6 11 1008.9 - 0.0 - - - - - - -
31/10:30am 35.2 W 5 9 1009.4 - 0.0 - - - - - - -
31/10:00am 34.2 NNW 5 8 1009.8 - 0.0 - - - - - - -
31/09:30am 33.0 N 6 8 1010.2 - 0.0 - - - - - - -
31/09:00am 32.7 W 3 5 1010.6 - 0.0 - - - - - - -
31/08:30am 31.5 WNW 4 7 1011.0 - 0.0 - - - - - - -
31/08:00am 30.6 N 4 7 1011.0 - 0.0 - - - - - - -
31/07:30am 29.9 WNW 5 7 1011.0 - 0.0 - - - - - - -
31/07:00am 29.3 NW 5 8 1010.8 - 0.0 - - - - - - -
31/06:30am 28.7 N 4 6 1010.5 - 0.0 - - - - - - -
31/06:00am 26.8 CALM 0 0 1010.0 - 0.0 - - - - - - -
31/05:30am 25.4 CALM 0 0 1009.4 - 0.0 - - - - - - -
31/05:00am 25.2 CALM 0 0 1008.8 - 0.0 - - - - - - -
31/04:30am 25.2 SW 0 0 1008.4 - 0.0 - - - - - - -
31/04:00am 25.7 SW 0 0 1008.3 - 0.0 - - - - - - -
31/03:30am 26.3 CALM 0 0 1007.9 - 0.0 - - - - - - -
31/03:00am 27.3 W 3 5 1007.8 - 0.0 - - - - - - -
31/02:30am 27.5 W 3 4 1007.7 - 0.0 - - - - - - -
31/02:00am 27.7 WNW 2 5 1007.8 - 0.0 - - - - - - -
31/01:30am 27.6 NW 4 5 1007.8 - 0.0 - - - - - - -
31/01:00am 27.8 NNW 5 7 1007.9 - 0.0 - - - - - - -
31/12:30am 28.0 NW 5 7 1008.3 - 0.0 - - - - - - -
31/12:00am 28.1 NW 5 7 1008.5 - 0.0 - - - - - - -
 
Date/Time
WST
Temp

°C
Wind Pressure Rain
since 9am
mm
Weather Cloud Vis
km
Sea
Height
m
Swell
Dir
 
Speed
knots
Gust
knots
hPa Trend Height
m
Period
s
Dir
30/11:30pm 28.3 NW 5 7 1008.9 - 0.0 - - - - - - -
30/11:00pm 28.5 NNW 4 5 1009.2 - 0.0 - - - - - - -
30/10:30pm 28.4 NW 3 5 1009.4 - 0.0 - - - - - - -
30/10:00pm 28.6 NNW 5 8 1009.6 - 0.0 - - - - - - -
30/09:30pm 28.7 NNW 5 7 1009.7 - 0.0 - - - - - - -
30/09:00pm 28.7 N 4 5 1009.6 - 0.0 - - - - - - -
30/08:30pm 29.1 NNW 4 6 1009.1 - 0.0 - - - - - - -
30/08:00pm 29.5 NW 6 8 1008.8 - 0.0 - - - - - - -
30/07:30pm 29.8 NNW 5 7 1008.4 - 0.0 - - - - - - -
30/07:00pm 30.1 WNW 6 9 1008.3 - 0.0 - - - - - - -
30/06:30pm 30.6 NW 6 9 1008.0 - 0.0 - - - - - - -
30/06:00pm 30.8 N 6 9 1007.6 - 0.0 - - - - - - -
30/05:30pm 31.0 N 7 10 1007.4 - 0.0 - - - - - - -
30/05:00pm 31.6 N 11 15 1006.9 - 0.0 - - - - - - -
30/04:30pm 32.1 N 12 16 1006.4 - 0.0 - - - - - - -
30/04:00pm 33.3 N 13 17 1006.2 - 0.0 - - - - - - -
30/03:30pm 33.5 N 13 17 1006.0 - 0.0 - - - - - - -
30/03:00pm 34.5 N 11 15 1006.0 - 0.0 - - - - - - -
30/02:30pm 36.2 N 11 14 1006.2 - 0.0 - - - - - - -
30/02:00pm 36.0 N 10 15 1006.4 - 0.0 - - - - - - -
30/01:30pm 35.9 N 11 16 1006.6 - 0.0 - - - - - - -
30/01:00pm 35.2 NNW 10 15 1007.1 - 0.0 - - - - - - -
30/12:30pm 35.6 NNW 8 12 1007.5 - 0.0 - - - - - - -
30/12:00pm 33.2 NNW 6 8 1008.1 - 0.0 - - - - - - -
30/11:30am 36.0 NNW 10 14 1008.6 - 0.0 - - - - - - -
30/11:00am 34.9 NW 10 15 1009.2 - 0.0 - - - - - - -
30/10:30am 34.6 NNW 8 13 1009.5 - 0.0 - - - - - - -
30/10:00am 33.6 NW 10 14 1009.8 - 0.0 - - - - - - -
30/09:30am 33.9 NNW 7 11 1010.3 - 0.0 - - - - - - -
30/09:00am 34.3 NE 4 6 1010.6 - 0.6 - - - - - - -
30/08:30am 32.1 N 5 7 1010.9 - 0.6 - - - - - - -
30/08:00am 30.8 N 5 7 1011.1 - 0.6 - - - - - - -
30/07:30am 30.0 NNE 6 9 1011.1 - 0.6 - - - - - - -
30/07:00am 29.3 NNE 6 8 1010.9 - 0.6 - - - - - - -
30/06:30am 27.2 NNE 3 4 1010.4 - 0.6 - - - - - - -
30/06:00am 25.7 CALM 0 0 1009.7 - 0.6 - - - - - - -
30/05:30am 24.1 CALM 0 0 1009.4 - 0.6 - - - - - - -
30/05:00am 23.6 CALM 0 0 1009.2 - 0.6 - - - - - - -
30/04:30am 23.8 CALM 0 0 1009.0 - 0.6 - - - - - - -
30/04:00am 23.7 CALM 0 0 1008.7 - 0.6 - - - - - - -
30/03:30am 23.5 CALM 0 0 1008.5 - 0.6 - - - - - - -
30/03:00am 23.7 CALM 0 0 1008.4 - 0.6 - - - - - - -
30/02:30am 24.0 CALM 0 0 1008.2 - 0.6 - - - - - - -
30/02:00am 23.6 CALM 0 0 1008.5 - 0.6 - - - - - - -
30/01:30am 23.7 CALM 0 0 1008.7 - 0.6 - - - - - - -
30/01:00am 23.9 CALM 0 0 1008.8 - 0.6 - - - - - - -
30/12:30am 23.9 SSE 1 3 1009.0 - 0.6 - - - - - - -
30/12:00am 24.1 S 3 4 1009.2 - 0.6 - - - - - - -
 
Date/Time
WST
Temp

°C
Wind Pressure Rain
since 9am
mm
Weather Cloud Vis
km
Sea
Height
m
Swell
Dir
 
Speed
knots
Gust
knots
hPa Trend Height
m
Period
s
Dir
29/11:30pm 24.0 S 3 4 1009.5 - 0.6 - - - - - - -
29/11:00pm 24.5 CALM 0 0 1009.9 - 0.6 - - - - - - -
29/10:30pm 25.0 CALM 0 0 1010.2 - 0.6 - - - - - - -
29/10:00pm 25.0 CALM 0 0 1010.7 - 0.6 - - - - - - -
29/09:30pm 25.6 CALM 0 0 1010.9 - 0.6 - - - - - - -
29/09:00pm 26.8 S 3 4 1011.1 - 0.6 - - - - - - -
29/08:30pm 27.6 S 4 6 1011.0 - 0.6 - - - - - - -
29/08:00pm 27.3 S 3 5 1010.8 - 0.6 - - - - - - -
29/07:30pm 27.2 CALM 0 0 1010.7 - 0.6 - - - - - - -
29/07:00pm 29.0 NNW 3 5 1010.4 - 0.6 - - - - - - -
29/06:30pm 29.6 NNW 4 6 1010.3 - 0.6 - - - - - - -
29/06:00pm 29.5 W 3 4 1009.9 - 0.6 - - - - - - -
29/05:30pm 30.3 N 8 13 1009.7 - 0.6 - - - - - - -
29/05:00pm 30.5 N 11 16 1009.4 - 0.6 - - - - - - -
29/04:30pm 30.6 N 9 13 1009.2 - 0.6 - - - - - - -
29/04:00pm 30.8 N 9 15 1008.9 - 0.6 - - - - - - -
29/03:30pm 30.2 N 9 14 1008.6 - 0.6 - - - - - - -
29/03:15pm 29.5 NE 9 14 1008.9 - 0.2 - - - - - - -
29/03:00pm 34.5 N 13 19 1008.1 - 0.0 - - - - - - -
29/02:30pm 35.6 N 13 18 1007.9 - 0.0 - - - - - - -
29/02:00pm 35.6 N 13 18 1008.0 - 0.0 - - - - - - -
29/01:30pm 36.4 N 13 18 1008.3 - 0.0 - - - - - - -
29/01:00pm 35.5 N 11 15 1008.6 - 0.0 - - - - - - -
29/12:30pm 35.8 N 12 17 1009.2 - 0.0 - - - - - - -
29/12:00pm 35.9 NNW 10 15 1009.7 - 0.0 - - - - - - -
29/11:30am 36.7 NNW 9 13 1010.1 - 0.0 - - - - - - -
29/11:00am 37.0 NNW 4 10 1010.6 - 0.0 - - - - - - -
29/10:30am 36.8 SSW 5 8 1010.9 - 0.0 - - - - - - -
29/10:00am 36.0 W 4 9 1011.5 - 0.0 - - - - - - -
29/09:30am 34.9 WSW 5 8 1012.0 - 0.0 - - - - - - -
29/09:00am 34.2 W 3 7 1012.3 - 0.0 - - - - - - -
29/08:30am 33.4 W 4 8 1012.6 - 0.0 - - - - - - -
29/08:00am 32.0 WNW 4 7 1012.7 - 0.0 - - - - - - -
29/07:30am 31.1 N 4 7 1012.7 - 0.0 - - - - - - -
29/07:00am 30.2 N 4 5 1012.4 - 0.0 - - - - - - -
29/06:30am 28.3 CALM 0 0 1012.2 - 0.0 - - - - - - -
29/06:00am 26.0 CALM 0 0 1011.9 - 0.0 - - - - - - -
29/05:30am 24.4 CALM 0 0 1011.4 - 0.0 - - - - - - -
29/05:00am 23.7 CALM 0 5 1011.1 - 0.0 - - - - - - -
29/04:30am 24.5 CALM 0 0 1010.7 - 0.0 - - - - - - -
29/04:00am 23.9 ENE 2 4 1010.7 - 0.0 - - - - - - -
29/03:30am 24.5 CALM 0 0 1010.1 - 0.0 - - - - - - -
29/03:00am 24.4 CALM 0 0 1009.9 - 0.0 - - - - - - -
29/02:30am 24.6 CALM 0 0 1009.5 - 0.0 - - - - - - -
29/02:00am 24.7 CALM 0 0 1009.4 - 0.0 - - - - - - -
29/01:30am 24.7 CALM 0 0 1009.4 - 0.0 - - - - - - -
29/01:00am 24.9 CALM 0 0 1009.7 - 0.0 - - - - - - -
29/12:30am 25.2 CALM 0 0 1009.8 - 0.0 - - - - - - -
29/12:00am 25.6 CALM 0 0 1010.0 - 0.0 - - - - - - -
 
Date/Time
WST
Temp

°C
Wind Pressure Rain
since 9am
mm
Weather Cloud Vis
km
Sea
Height
m
Swell
Dir
 
Speed
knots
Gust
knots
hPa Trend Height
m
Period
s
Dir
28/11:30pm 26.0 CALM 0 0 1010.1 - 0.0 - - - - - - -
28/11:00pm 26.8 CALM 0 0 1010.1 - 0.0 - - - - - - -
28/10:30pm 27.7 SW 1 4 1010.2 - 0.0 - - - - - - -
28/10:00pm 28.3 W 4 6 1010.4 - 0.0 - - - - - - -
28/09:30pm 28.4 WNW 3 6 1010.3 - 0.0 - - - - - - -
28/09:00pm 28.7 NW 5 6 1010.2 - 0.0 - - - - - - -
28/08:30pm 28.9 WNW 3 5 1010.2 - 0.0 - - - - - - -
28/08:00pm 29.4 WNW 3 6 1010.1 - 0.0 - - - - - - -
28/07:30pm 30.3 WNW 4 6 1009.9 - 0.0 - - - - - - -
28/07:00pm 30.7 N 4 5 1009.6 - 0.0 - - - - - - -
28/06:30pm 31.3 N 6 8 1009.2 - 0.0 - - - - - - -
28/06:00pm 31.8 N 7 11 1009.0 - 0.0 - - - - - - -
28/05:30pm 32.6 N 7 11 1008.5 - 0.0 - - - - - - -
28/05:00pm 33.5 N 8 11 1008.3 - 0.0 - - - - - - -
28/04:30pm 34.3 N 10 13 1007.7 - 0.0 - - - - - - -
28/04:00pm 35.4 N 10 14 1007.5 - 0.0 - - - - - - -
28/03:30pm 36.0 N 10 16 1007.3 - 0.0 - - - - - - -
28/03:00pm 36.5 NNW 10 14 1007.2 - 0.0 - - - - - - -
28/02:30pm 37.3 NNW 10 15 1007.2 - 0.0 - - - - - - -
28/02:00pm 37.6 NNW 9 14 1007.4 - 0.0 - - - - - - -
28/01:30pm 36.5 NNW 10 13 1007.7 - 0.0 - - - - - - -
28/01:00pm 37.2 NNW 11 17 1008.0 - 0.0 - - - - - - -
28/12:30pm 36.3 S 4 7 1008.3 - 0.0 - - - - - - -
28/12:00pm 37.5 WSW 5 8 1009.0 - 0.0 - - - - - - -

Other Formats:

Comma delimited format used in spreadsheet applications
http://www.bom.gov.au/fwo/IDW60701/IDW60701.94100.axf

JavaScript Object Notation format (JSON) in row-major order
http://www.bom.gov.au/fwo/IDW60701/IDW60701.94100.json